Ust'- Kut, Russia
Current Conditions -  °F | °C
As of 12:30 AM on Saturday 29 Nov 2014 (Local Time) from UIBB Reporting Station
Broken Clouds Broken Clouds  
Wind Chill: -18°   Ceiling: 20000
Heat Index: -4°   Visibility: 3mi
Dew Point: -13°   Wind: 7mph
Humidity: 65%   Direction: 290°WNW
Pressure: 30.18"   Gusts: NA
Location:  56.77°N, 105.65°E
Report Text: UIBB 281630Z 29003MPS P5000 FEW026CB BKN200 M20/M25 Q1022 NOSIGRMK QFE724/0965 30820550
Loading
Personal Weather Stations






























Interactive Weather Map New forecast layout! Learn more

10-Day Weather Forecast

Advertisements
Track Severe Weather on mobile